createdAt,value
2019-05-22T00:00:35.104Z,96340.91
2019-05-22T00:01:47.264Z,96336.66
2019-05-22T00:02:55.497Z,96344.63
2019-05-22T00:04:21.707Z,96339.20
2019-05-22T00:05:33.050Z,96343.93
2019-05-22T00:06:44.326Z,96343.12
2019-05-22T00:07:51.871Z,96343.84
2019-05-22T00:09:00.279Z,96344.81
2019-05-22T00:10:09.680Z,96353.91
2019-05-22T00:11:18.004Z,96353.91
2019-05-22T00:12:27.370Z,96354.86
2019-05-22T00:13:39.251Z,96357.92
2019-05-22T00:14:49.303Z,96357.22
2019-05-22T00:15:57.824Z,96358.64
2019-05-22T00:17:07.345Z,96355.69
2019-05-22T00:18:16.986Z,96361.36
2019-05-22T00:19:27.604Z,96361.71
2019-05-22T00:20:36.947Z,96362.66
2019-05-22T00:21:46.329Z,96361.36
2019-05-22T00:22:55.373Z,96366.44
2019-05-22T00:24:04.895Z,96357.81
2019-05-22T00:25:18.647Z,96365.61
2019-05-22T00:26:26.707Z,96363.24
2019-05-22T00:27:36.103Z,96370.33
2019-05-22T00:28:44.009Z,96367.26
2019-05-22T00:29:54.760Z,96367.61
2019-05-22T00:31:03.160Z,96364.19
2019-05-22T00:32:12.127Z,96370.33
2019-05-22T00:33:19.473Z,96361.71
2019-05-22T00:34:28.828Z,96367.73
2019-05-22T00:35:38.543Z,96367.73
2019-05-22T00:36:49.051Z,96372.10
2019-05-22T00:37:57.214Z,96368.20
2019-05-22T00:39:07.086Z,96366.44
2019-05-22T00:40:17.928Z,96370.21
2019-05-22T00:41:27.180Z,96372.69
2019-05-22T00:42:36.447Z,96369.62
2019-05-22T00:43:45.475Z,96370.44
2019-05-22T00:44:54.332Z,96376.78
2019-05-22T00:46:05.765Z,96366.39
2019-05-22T00:47:14.817Z,96376.31
2019-05-22T00:48:24.624Z,96380.20
2019-05-22T00:49:33.919Z,96383.16
2019-05-22T00:51:00.288Z,96372.77
2019-05-22T00:52:25.008Z,96376.19
2019-05-22T00:53:52.431Z,96376.94
2019-05-22T00:55:18.182Z,96378.37
2019-05-22T00:56:39.068Z,96377.31
2019-05-22T00:57:53.870Z,96383.94
2019-05-22T00:59:08.553Z,96381.61
2019-05-22T01:00:22.732Z,96384.67
2019-05-22T01:01:37.555Z,96387.16
2019-05-22T01:02:49.612Z,96386.17
2019-05-22T01:03:59.073Z,96381.34
2019-05-22T01:05:08.415Z,96388.18
2019-05-22T01:06:16.047Z,96381.22
2019-05-22T01:07:30.490Z,96381.56
2019-05-22T01:08:40.518Z,96388.30
2019-05-22T01:09:52.261Z,96380.98
2019-05-22T01:11:01.181Z,96378.73
2019-05-22T01:12:17.491Z,96383.45
2019-05-22T01:13:27.768Z,96382.51
2019-05-22T01:14:42.819Z,96382.86
2019-05-22T01:15:48.252Z,96385.81
2019-05-22T01:16:57.518Z,96385.34
2019-05-22T01:18:10.948Z,96387.94
2019-05-22T01:19:20.071Z,96390.27
2019-05-22T01:20:28.574Z,96387.19
2019-05-22T01:21:37.970Z,96390.05
2019-05-22T01:22:47.403Z,96385.56
2019-05-22T01:24:00.796Z,96386.75
2019-05-22T01:25:13.710Z,96396.07
2019-05-22T01:26:23.077Z,96392.05
2019-05-22T01:27:32.575Z,96387.68
2019-05-22T01:28:41.427Z,96388.47
2019-05-22T01:29:50.453Z,96391.42
2019-05-22T01:31:04.613Z,96387.53
2019-05-22T01:32:20.800Z,96389.18
2019-05-22T01:33:33.298Z,96395.33
2019-05-22T01:34:41.021Z,96393.55
2019-05-22T01:36:09.377Z,96394.50
2019-05-22T01:37:19.042Z,96394.84
2019-05-22T01:38:27.484Z,96399.84
2019-05-22T01:39:58.431Z,96396.27
2019-05-22T01:41:16.968Z,96397.57
2019-05-22T01:42:33.330Z,96400.56
2019-05-22T01:43:42.819Z,96398.91
2019-05-22T01:45:03.541Z,96402.33
2019-05-22T01:46:03.277Z,96397.84
2019-05-22T01:47:20.785Z,96401.27
2019-05-22T01:48:35.470Z,96400.67
2019-05-22T01:49:52.444Z,96394.77
2019-05-22T01:51:01.568Z,96399.49
2019-05-22T01:52:11.561Z,96396.55
2019-05-22T01:53:24.112Z,96394.89
2019-05-22T01:54:32.737Z,96392.64
2019-05-22T01:55:42.406Z,96391.94
2019-05-22T01:56:51.608Z,96395.36
2019-05-22T01:57:59.633Z,96399.14
2019-05-22T01:59:09.124Z,96399.02
2019-05-22T02:00:19.314Z,96400.99
2019-05-22T02:01:30.439Z,96395.20
2019-05-22T02:02:39.395Z,96400.40
2019-05-22T02:03:47.863Z,96402.52
2019-05-22T02:04:58.369Z,96403.47
2019-05-22T02:06:07.511Z,96406.89
2019-05-22T02:07:15.949Z,96405.13
2019-05-22T02:08:25.037Z,96403.47
2019-05-22T02:09:39.522Z,96406.89
2019-05-22T02:10:49.132Z,96405.59
2019-05-22T02:12:29.694Z,96399.22
2019-05-22T02:13:42.743Z,96413.51
2019-05-22T02:14:52.682Z,96416.63
2019-05-22T02:16:00.688Z,96412.96
2019-05-22T02:17:12.822Z,96406.70
2019-05-22T02:18:23.210Z,96405.41
2019-05-22T02:19:32.010Z,96408.95
2019-05-22T02:20:39.734Z,96410.36
2019-05-22T02:21:48.399Z,96408.23
2019-05-22T02:22:57.526Z,96410.48
2019-05-22T02:24:07.175Z,96413.91
2019-05-22T02:25:15.703Z,96416.50
2019-05-22T02:26:23.797Z,96410.57
2019-05-22T02:27:31.563Z,96417.42
2019-05-22T02:28:41.203Z,96418.63
2019-05-22T02:29:49.187Z,96415.68
2019-05-22T02:30:58.070Z,96423.83
2019-05-22T02:32:07.307Z,96415.20
2019-05-22T02:33:19.351Z,96414.73
2019-05-22T02:34:28.463Z,96421.70
2019-05-22T02:35:37.399Z,96417.42
2019-05-22T02:36:46.217Z,96416.23
2019-05-22T02:37:55.665Z,96421.91
2019-05-22T02:39:04.638Z,96422.06
2019-05-22T02:40:29.004Z,96419.94
2019-05-22T02:41:46.627Z,96422.65
2019-05-22T02:42:55.794Z,96432.92
2019-05-22T02:44:03.391Z,96427.14
2019-05-22T02:45:12.145Z,96423.59
2019-05-22T02:46:21.365Z,96435.75
2019-05-22T02:47:30.511Z,96430.91
2019-05-22T02:48:41.955Z,96429.62
2019-05-22T02:49:49.506Z,96429.27
2019-05-22T02:50:57.905Z,96429.14
2019-05-22T02:52:07.558Z,96432.09
2019-05-22T02:53:16.072Z,96427.25
2019-05-22T02:54:24.940Z,96431.50
2019-05-22T02:55:32.842Z,96427.48
2019-05-22T02:56:40.787Z,96433.86
2019-05-22T02:57:48.201Z,96432.56
2019-05-22T02:58:58.623Z,96431.27
2019-05-22T03:00:07.574Z,96438.11
2019-05-22T03:01:17.486Z,96433.86
2019-05-22T03:02:25.927Z,96433.86
2019-05-22T03:03:38.374Z,96437.29
2019-05-22T03:05:07.229Z,96435.16
2019-05-22T03:06:16.188Z,96435.64
2019-05-22T03:07:24.672Z,96446.50
2019-05-22T03:09:28.962Z,96445.67
2019-05-22T03:10:37.058Z,96445.67
2019-05-22T03:11:51.274Z,96449.83
2019-05-22T03:12:59.362Z,96453.25
2019-05-22T03:14:09.382Z,96449.00
2019-05-22T03:15:20.890Z,96457.03
2019-05-22T03:16:35.764Z,96453.48
2019-05-22T03:17:45.818Z,96445.23
2019-05-22T03:19:08.485Z,96450.30
2019-05-22T03:20:17.888Z,96454.08
2019-05-22T03:21:26.124Z,96452.31
2019-05-22T03:22:42.888Z,96449.95
2019-05-22T03:23:50.118Z,96454.67
2019-05-22T03:25:02.605Z,96448.30
2019-05-22T03:26:11.305Z,96445.58
2019-05-22T03:27:23.122Z,96446.41
2019-05-22T03:28:31.402Z,96445.47
2019-05-22T03:29:56.111Z,96449.83
2019-05-22T03:31:04.435Z,96454.91
2019-05-22T03:32:13.284Z,96451.01
2019-05-22T03:33:21.080Z,96450.19
2019-05-22T03:34:29.455Z,96455.38
2019-05-22T03:35:48.522Z,96448.06
2019-05-22T03:36:57.306Z,96453.61
2019-05-22T03:38:06.679Z,96447.85
2019-05-22T03:39:14.757Z,96454.20
2019-05-22T03:40:22.987Z,96459.86
2019-05-22T03:41:31.355Z,96451.13
2019-05-22T03:42:39.163Z,96457.97
2019-05-22T03:43:49.253Z,96457.50
2019-05-22T03:44:56.631Z,96458.33
2019-05-22T03:46:24.455Z,96461.75
2019-05-22T03:47:31.895Z,96459.98
2019-05-22T03:48:41.053Z,96458.56
2019-05-22T03:49:50.065Z,96457.14
2019-05-22T03:51:10.206Z,96460.22
2019-05-22T03:52:18.030Z,96458.91
2019-05-22T03:53:26.772Z,96462.13
2019-05-22T03:54:35.440Z,96464.37
2019-05-22T03:55:43.396Z,96459.03
2019-05-22T03:56:54.134Z,96463.75
2019-05-22T03:58:02.409Z,96466.70
2019-05-22T03:59:11.213Z,96458.45
2019-05-22T04:00:23.166Z,96466.12
2019-05-22T04:01:32.794Z,96463.52
2019-05-22T04:02:41.035Z,96468.00
2019-05-22T04:03:49.447Z,96471.07
2019-05-22T04:04:57.504Z,96467.17
2019-05-22T04:06:06.258Z,96467.33
2019-05-22T04:07:17.635Z,96473.67
2019-05-22T04:08:27.523Z,96477.20
2019-05-22T04:09:37.668Z,96471.69
2019-05-22T04:11:13.127Z,96476.06
2019-05-22T04:12:22.207Z,96472.64
2019-05-22T04:13:30.852Z,96473.57
2019-05-22T04:14:40.928Z,96473.09
2019-05-22T04:15:48.135Z,96478.30
2019-05-22T04:16:56.691Z,96483.84
2019-05-22T04:18:16.499Z,96476.05
2019-05-22T04:19:25.320Z,96483.72
2019-05-22T04:20:32.715Z,96482.55
2019-05-22T04:21:41.284Z,96481.24
2019-05-22T04:22:48.837Z,96478.17
2019-05-22T04:23:57.297Z,96481.13
2019-05-22T04:25:04.935Z,96476.88
2019-05-22T04:26:14.711Z,96487.14
2019-05-22T04:27:22.713Z,96479.36
2019-05-22T04:28:33.047Z,96482.78
2019-05-22T04:29:41.264Z,96484.55
2019-05-22T04:30:49.738Z,96486.67
2019-05-22T04:32:00.629Z,96487.97
2019-05-22T04:33:09.051Z,96483.61
2019-05-22T04:34:16.862Z,96482.78
2019-05-22T04:35:26.474Z,96474.98
2019-05-22T04:36:34.688Z,96477.47
2019-05-22T04:37:45.249Z,96476.17
2019-05-22T04:38:52.579Z,96483.84
2019-05-22T04:40:49.953Z,96486.45
2019-05-22T04:42:01.295Z,96485.97
2019-05-22T04:43:10.711Z,96490.67
2019-05-22T04:44:18.883Z,96488.91
2019-05-22T04:45:29.238Z,96489.27
2019-05-22T04:46:37.416Z,96493.04
2019-05-22T04:47:58.499Z,96494.69
2019-05-22T04:49:07.152Z,96495.87
2019-05-22T04:50:15.642Z,96497.77
2019-05-22T04:51:31.836Z,96499.89
2019-05-22T04:52:39.705Z,96502.48
2019-05-22T04:53:47.716Z,96495.99
2019-05-22T04:54:55.138Z,96496.34
2019-05-22T04:56:03.106Z,96496.23
2019-05-22T04:57:11.188Z,96496.94
2019-05-22T04:58:22.426Z,96495.53
2019-05-22T04:59:30.551Z,96499.28
2019-05-22T05:00:38.935Z,96510.17
2019-05-22T05:01:46.640Z,96499.78
2019-05-22T05:02:54.670Z,96509.55
2019-05-22T05:04:02.957Z,96512.26
2019-05-22T05:05:13.312Z,96505.19
2019-05-22T05:06:23.872Z,96508.25
2019-05-22T05:07:32.402Z,96507.78
2019-05-22T05:08:39.631Z,96503.41
2019-05-22T05:09:47.691Z,96509.44
2019-05-22T05:10:58.419Z,96501.53
2019-05-22T05:12:07.723Z,96506.61
2019-05-22T05:13:15.356Z,96506.13
2019-05-22T05:14:23.379Z,96504.84
2019-05-22T05:15:30.618Z,96504.84
2019-05-22T05:16:38.992Z,96508.26
2019-05-22T05:17:46.527Z,96508.26
2019-05-22T05:18:54.694Z,96510.73
2019-05-22T05:20:02.119Z,96505.19
2019-05-22T05:21:10.573Z,96510.27
2019-05-22T05:22:27.130Z,96510.63
2019-05-22T05:23:35.079Z,96510.98
2019-05-22T05:24:42.392Z,96510.16
2019-05-22T05:25:50.760Z,96514.73
2019-05-22T05:26:59.504Z,96513.78
2019-05-22T05:28:10.509Z,96515.55
2019-05-22T05:29:31.172Z,96519.45
2019-05-22T05:30:39.289Z,96513.11
2019-05-22T05:31:46.886Z,96523.72
2019-05-22T05:32:55.150Z,96518.64
2019-05-22T05:34:45.888Z,96531.16
2019-05-22T05:35:55.735Z,96526.80
2019-05-22T05:37:06.007Z,96521.02
2019-05-22T05:38:16.457Z,96531.41
2019-05-22T05:40:24.208Z,96519.38
2019-05-22T05:41:33.091Z,96522.80
2019-05-22T05:42:40.678Z,96527.64
2019-05-22T05:43:49.823Z,96530.91
2019-05-22T05:44:57.049Z,96529.97
2019-05-22T05:46:05.506Z,96534.22
2019-05-22T05:47:12.962Z,96537.53
2019-05-22T05:48:26.664Z,96539.54
2019-05-22T05:49:33.984Z,96542.02
2019-05-22T05:50:59.639Z,96541.20
2019-05-22T05:52:10.168Z,96544.50
2019-05-22T05:53:22.753Z,96551.11
2019-05-22T05:54:31.932Z,96544.98
2019-05-22T05:56:17.696Z,96544.15
2019-05-22T05:58:24.555Z,96541.91
2019-05-22T05:59:32.486Z,96543.20
2019-05-22T06:00:44.798Z,96544.25
2019-05-22T06:01:57.273Z,96544.02
2019-05-22T06:03:29.887Z,96542.14
2019-05-22T06:04:40.799Z,96548.41
2019-05-22T06:05:48.880Z,96548.73
2019-05-22T06:07:27.015Z,96553.69
2019-05-22T06:08:36.566Z,96550.16
2019-05-22T06:09:45.620Z,96550.27
2019-05-22T06:11:42.780Z,96553.22
2019-05-22T06:12:51.429Z,96548.27
2019-05-22T06:13:58.846Z,96548.97
2019-05-22T06:15:08.636Z,96553.33
2019-05-22T06:17:12.461Z,96553.58
2019-05-22T06:18:39.074Z,96553.34
2019-05-22T06:19:50.027Z,96556.30
2019-05-22T06:21:03.666Z,96557.82
2019-05-22T06:22:09.364Z,96560.19
2019-05-22T06:24:11.126Z,96558.17
2019-05-22T06:25:19.619Z,96560.89
2019-05-22T06:27:10.810Z,96565.02
2019-05-22T06:28:18.753Z,96568.68
2019-05-22T06:29:33.178Z,96563.84
2019-05-22T06:30:47.025Z,96566.43
2019-05-22T06:32:39.331Z,96566.09
2019-05-22T06:33:47.310Z,96570.00
2019-05-22T06:34:54.907Z,96565.98
2019-05-22T06:36:08.208Z,96572.48
2019-05-22T06:37:33.158Z,96573.88
2019-05-22T06:39:10.866Z,96574.36
2019-05-22T06:40:18.494Z,96575.43
2019-05-22T06:41:32.323Z,96578.71
2019-05-22T06:42:43.923Z,96574.23
2019-05-22T06:44:38.322Z,96582.97
2019-05-22T06:45:46.283Z,96581.09
2019-05-22T06:46:53.494Z,96583.55
2019-05-22T06:48:01.468Z,96585.09
2019-05-22T06:49:31.918Z,96584.86
2019-05-22T06:50:39.897Z,96583.80
2019-05-22T06:51:47.106Z,96587.34
2019-05-22T06:53:08.847Z,96583.22
2019-05-22T06:54:04.499Z,96580.50
2019-05-22T06:55:12.883Z,96583.31
2019-05-22T06:56:23.700Z,96584.05
2019-05-22T06:57:36.872Z,96590.91
2019-05-22T06:58:44.053Z,96592.56
2019-05-22T07:00:11.331Z,96588.31
2019-05-22T07:01:01.536Z,96586.06
2019-05-22T07:02:10.997Z,96589.02
2019-05-22T07:03:19.106Z,96591.97
2019-05-22T07:04:27.485Z,96593.52
2019-05-22T07:05:35.377Z,96588.20
2019-05-22T07:06:43.783Z,96591.48
2019-05-22T07:07:52.197Z,96589.35
2019-05-22T07:09:01.901Z,96591.84
2019-05-22T07:10:14.605Z,96589.23
2019-05-22T07:11:22.559Z,96590.54
2019-05-22T07:12:31.502Z,96592.31
2019-05-22T07:13:39.820Z,96589.71
2019-05-22T07:15:55.605Z,96596.56
2019-05-22T07:17:03.564Z,96598.10
2019-05-22T07:18:13.216Z,96598.23
2019-05-22T07:19:25.026Z,96597.98
2019-05-22T07:20:38.169Z,96610.73
2019-05-22T07:21:46.993Z,96602.83
2019-05-22T07:22:55.286Z,96606.14
2019-05-22T07:24:04.519Z,96607.67
2019-05-22T07:25:13.334Z,96603.30
2019-05-22T07:26:21.301Z,96608.39
2019-05-22T07:27:30.171Z,96601.39
2019-05-22T07:28:38.583Z,96606.94
2019-05-22T07:29:45.897Z,96603.75
2019-05-22T07:30:54.414Z,96599.73
2019-05-22T07:32:04.001Z,96599.63
2019-05-22T07:33:13.152Z,96606.83
2019-05-22T07:34:21.438Z,96608.02
2019-05-22T07:35:46.180Z,96599.63
2019-05-22T07:36:41.271Z,96600.78
2019-05-22T07:37:50.834Z,96604.91
2019-05-22T07:38:58.321Z,96609.64
2019-05-22T07:40:06.773Z,96602.44
2019-05-22T07:41:14.002Z,96602.20
2019-05-22T07:42:22.097Z,96601.61
2019-05-22T07:43:31.033Z,96605.71
2019-05-22T07:44:39.043Z,96602.64
2019-05-22T07:45:46.959Z,96604.30
2019-05-22T07:46:55.709Z,96610.20
2019-05-22T07:48:03.582Z,96609.73
2019-05-22T07:49:12.969Z,96608.31
2019-05-22T07:50:21.681Z,96608.31
2019-05-22T07:51:31.034Z,96603.94
2019-05-22T07:52:39.973Z,96608.67
2019-05-22T07:53:49.433Z,96614.34
2019-05-22T07:54:57.527Z,96613.75
2019-05-22T07:56:10.986Z,96609.85
2019-05-22T07:57:23.352Z,96609.37
2019-05-22T07:58:33.938Z,96617.18
2019-05-22T07:59:41.168Z,96620.61
2019-05-22T08:01:01.441Z,96617.65
2019-05-22T08:02:12.122Z,96616.35
2019-05-22T08:03:22.286Z,96617.77
2019-05-22T08:04:29.942Z,96611.39
2019-05-22T08:05:41.352Z,96616.23
2019-05-22T08:06:49.860Z,96618.36
2019-05-22T08:07:58.106Z,96613.63
2019-05-22T08:09:09.231Z,96623.09
2019-05-22T08:10:18.768Z,96619.42
2019-05-22T08:11:27.525Z,96613.75
2019-05-22T08:12:38.245Z,96616.56
2019-05-22T08:13:47.315Z,96621.64
2019-05-22T08:14:56.462Z,96629.32
2019-05-22T08:16:05.069Z,96621.52
2019-05-22T08:17:15.343Z,96618.92
2019-05-22T08:18:22.600Z,96626.25
2019-05-22T08:19:30.951Z,96624.95
2019-05-22T08:20:39.560Z,96626.25
2019-05-22T08:21:47.536Z,96629.80
2019-05-22T08:22:56.810Z,96628.14
2019-05-22T08:24:05.391Z,96627.31
2019-05-22T08:25:13.096Z,96628.77
2019-05-22T08:26:23.492Z,96620.45
2019-05-22T08:27:31.988Z,96628.41
2019-05-22T08:28:41.759Z,96629.47
2019-05-22T08:29:49.311Z,96627.46
2019-05-22T08:30:57.674Z,96630.06
2019-05-22T08:32:06.542Z,96630.06
2019-05-22T08:33:18.246Z,96640.46
2019-05-22T08:34:26.794Z,96634.08
2019-05-22T08:35:34.948Z,96636.80
2019-05-22T08:36:42.476Z,96634.31
2019-05-22T08:37:52.112Z,96635.14
2019-05-22T08:39:03.736Z,96641.64
2019-05-22T08:40:14.643Z,96642.58
2019-05-22T08:41:32.202Z,96641.91
2019-05-22T08:42:40.958Z,96642.97
2019-05-22T08:44:13.661Z,96651.83
2019-05-22T08:44:58.563Z,96646.39
2019-05-22T08:46:07.017Z,96640.59
2019-05-22T08:47:15.190Z,96646.27
2019-05-22T08:48:23.786Z,96648.19
2019-05-22T08:49:32.141Z,96646.41
2019-05-22T08:50:42.167Z,96643.45
2019-05-22T08:51:50.526Z,96645.44
2019-05-22T08:52:57.948Z,96647.56
2019-05-22T08:54:06.633Z,96644.49
2019-05-22T08:55:14.949Z,96649.22
2019-05-22T08:56:23.615Z,96647.80
2019-05-22T08:57:30.978Z,96650.41
2019-05-22T08:58:43.111Z,96649.22
2019-05-22T08:59:50.622Z,96647.80
2019-05-22T09:00:58.902Z,96650.98
2019-05-22T09:02:08.916Z,96649.22
2019-05-22T09:03:17.690Z,96647.92
2019-05-22T09:04:25.023Z,96657.84
2019-05-22T09:05:33.162Z,96662.09
2019-05-22T09:06:40.551Z,96659.03
2019-05-22T09:07:48.914Z,96659.86
2019-05-22T09:08:56.174Z,96660.21
2019-05-22T09:10:04.267Z,96657.61
2019-05-22T09:11:12.485Z,96661.87
2019-05-22T09:12:20.778Z,96657.38
2019-05-22T09:13:31.463Z,96655.61
2019-05-22T09:14:39.546Z,96656.44
2019-05-22T09:15:47.522Z,96659.03
2019-05-22T09:16:56.789Z,96661.99
2019-05-22T09:18:04.194Z,96666.25
2019-05-22T09:19:12.734Z,96659.39
2019-05-22T09:20:22.611Z,96656.80
2019-05-22T09:21:31.391Z,96655.49
2019-05-22T09:22:41.139Z,96659.75
2019-05-22T09:23:49.790Z,96660.58
2019-05-22T09:24:57.622Z,96666.60
2019-05-22T09:26:06.491Z,96655.84
2019-05-22T09:27:14.603Z,96668.70
2019-05-22T09:28:22.759Z,96660.58
2019-05-22T09:29:30.064Z,96663.17
2019-05-22T09:30:38.385Z,96668.23
2019-05-22T09:31:45.668Z,96664.69
2019-05-22T09:32:54.933Z,96663.73
2019-05-22T09:34:02.338Z,96663.15
2019-05-22T09:35:10.721Z,96665.28
2019-05-22T09:36:18.358Z,96669.06
2019-05-22T09:37:26.619Z,96663.03
2019-05-22T09:38:35.420Z,96663.27
2019-05-22T09:39:43.381Z,96669.66
2019-05-22T09:40:50.923Z,96668.09
2019-05-22T09:41:58.895Z,96666.20
2019-05-22T09:43:06.530Z,96662.19
2019-05-22T09:44:15.417Z,96666.80
2019-05-22T09:45:22.926Z,96667.86
2019-05-22T09:46:30.891Z,96672.00
2019-05-22T09:47:40.261Z,96669.13
2019-05-22T09:48:48.523Z,96672.33
2019-05-22T09:49:55.761Z,96672.56
2019-05-22T09:51:04.305Z,96671.02
2019-05-22T09:52:12.313Z,96667.33
2019-05-22T09:53:21.372Z,96673.12
2019-05-22T09:54:28.804Z,96675.48
2019-05-22T09:55:37.577Z,96678.67
2019-05-22T09:56:44.821Z,96676.27
2019-05-22T09:57:54.428Z,96674.89
2019-05-22T09:59:02.180Z,96684.70
2019-05-22T10:00:12.530Z,96681.62
2019-05-22T10:01:19.826Z,96684.70
2019-05-22T10:02:30.209Z,96679.50
2019-05-22T10:03:38.061Z,96684.58
2019-05-22T10:04:46.415Z,96686.36
2019-05-22T10:05:54.436Z,96690.61
2019-05-22T10:07:02.726Z,96686.59
2019-05-22T10:08:09.970Z,96685.77
2019-05-22T10:09:17.911Z,96692.63
2019-05-22T10:10:26.808Z,96692.98
2019-05-22T10:11:35.666Z,96692.39
2019-05-22T10:12:43.869Z,96694.98
2019-05-22T10:13:52.355Z,96694.02
2019-05-22T10:15:00.132Z,96691.41
2019-05-22T10:16:08.587Z,96697.44
2019-05-22T10:17:17.202Z,96703.95
2019-05-22T10:18:25.760Z,96701.14
2019-05-22T10:19:34.076Z,96698.30
2019-05-22T10:20:42.503Z,96701.62
2019-05-22T10:21:51.055Z,96700.52
2019-05-22T10:23:14.036Z,96700.31
2019-05-22T10:24:09.146Z,96701.73
2019-05-22T10:25:18.078Z,96701.50
2019-05-22T10:26:25.414Z,96700.08
2019-05-22T10:27:33.332Z,96701.85
2019-05-22T10:28:41.145Z,96705.76
2019-05-22T10:29:49.569Z,96704.34
2019-05-22T10:30:58.417Z,96703.86
2019-05-22T10:32:07.606Z,96707.77
2019-05-22T10:33:14.946Z,96712.50
2019-05-22T10:34:23.259Z,96706.47
2019-05-22T10:35:31.745Z,96710.02
2019-05-22T10:36:43.018Z,96708.36
2019-05-22T10:37:48.733Z,96707.77
2019-05-22T10:38:56.684Z,96711.78
2019-05-22T10:40:04.628Z,96714.51
2019-05-22T10:41:13.577Z,96718.05
2019-05-22T10:42:22.101Z,96711.81
2019-05-22T10:43:31.087Z,96721.04
2019-05-22T10:44:38.466Z,96715.95
2019-05-22T10:45:47.128Z,96716.06
2019-05-22T10:46:54.542Z,96721.74
2019-05-22T10:48:03.392Z,96719.27
2019-05-22T10:49:10.611Z,96720.67
2019-05-22T10:50:18.664Z,96721.63
2019-05-22T10:51:26.067Z,96724.34
2019-05-22T10:52:34.871Z,96717.04
2019-05-22T10:53:43.100Z,96727.77
2019-05-22T10:54:51.453Z,96719.64
2019-05-22T10:55:59.171Z,96724.34
2019-05-22T10:57:08.541Z,96723.28
2019-05-22T10:58:15.874Z,96715.83
2019-05-22T10:59:24.433Z,96719.14
2019-05-22T11:00:32.415Z,96714.17
2019-05-22T11:01:40.974Z,96721.39
2019-05-22T11:02:49.021Z,96718.53
2019-05-22T11:03:57.976Z,96715.80
2019-05-22T11:05:05.834Z,96717.34
2019-05-22T11:06:14.601Z,96721.13
2019-05-22T11:07:21.962Z,96726.22
2019-05-22T11:08:34.372Z,96721.72
2019-05-22T11:09:40.440Z,96730.36
2019-05-22T11:10:49.600Z,96732.48
2019-05-22T11:11:57.288Z,96730.36
2019-05-22T11:13:05.929Z,96732.02
2019-05-22T11:14:14.216Z,96724.80
2019-05-22T11:15:25.057Z,96721.37
2019-05-22T11:16:33.773Z,96722.31
2019-05-22T11:17:42.705Z,96728.81
2019-05-22T11:18:50.148Z,96726.69
2019-05-22T11:19:59.011Z,96726.22
2019-05-22T11:21:06.920Z,96724.80
2019-05-22T11:22:17.735Z,96720.89
2019-05-22T11:23:26.806Z,96721.25
2019-05-22T11:24:34.782Z,96720.30
2019-05-22T11:25:42.310Z,96722.44
2019-05-22T11:26:51.994Z,96721.95
2019-05-22T11:27:59.328Z,96721.45
2019-05-22T11:29:08.783Z,96723.58
2019-05-22T11:30:18.354Z,96722.64
2019-05-22T11:31:26.701Z,96726.55
2019-05-22T11:32:34.864Z,96728.23
2019-05-22T11:33:43.121Z,96727.28
2019-05-22T11:34:50.987Z,96722.08
2019-05-22T11:35:58.893Z,96730.23
2019-05-22T11:37:06.823Z,96730.13
2019-05-22T11:38:15.172Z,96725.27
2019-05-22T11:39:38.923Z,96726.09
2019-05-22T11:40:36.677Z,96725.51
2019-05-22T11:41:44.225Z,96730.59
2019-05-22T11:42:54.270Z,96729.02
2019-05-22T11:44:01.595Z,96724.53
2019-05-22T11:45:10.879Z,96729.85
2019-05-22T11:46:18.405Z,96732.09
2019-05-22T11:47:27.076Z,96730.87
2019-05-22T11:48:34.750Z,96728.86
2019-05-22T11:49:43.981Z,96729.09
2019-05-22T11:50:51.797Z,96725.07
2019-05-22T11:51:59.799Z,96725.63
2019-05-22T11:53:07.176Z,96727.98
2019-05-22T11:54:15.411Z,96725.27
2019-05-22T11:55:23.022Z,96728.22
2019-05-22T11:56:31.403Z,96732.01
2019-05-22T11:57:40.286Z,96729.16
2019-05-22T11:58:48.377Z,96727.23
2019-05-22T11:59:56.378Z,96723.91
2019-05-22T12:01:04.441Z,96724.14
2019-05-22T12:02:13.340Z,96735.34
2019-05-22T12:03:23.734Z,96736.64
2019-05-22T12:04:46.601Z,96734.14
2019-05-22T12:05:42.100Z,96728.66
2019-05-22T12:06:53.582Z,96730.41
2019-05-22T12:08:01.127Z,96732.17
2019-05-22T12:09:09.943Z,96732.60
2019-05-22T12:10:21.369Z,96732.61
2019-05-22T12:11:28.885Z,96723.92
2019-05-22T12:12:38.116Z,96730.77
2019-05-22T12:13:47.460Z,96727.14
2019-05-22T12:14:55.900Z,96723.44
2019-05-22T12:16:05.504Z,96731.08
2019-05-22T12:17:13.863Z,96729.14
2019-05-22T12:18:22.230Z,96723.26
2019-05-22T12:19:30.700Z,96726.50
2019-05-22T12:20:37.910Z,96724.56
2019-05-22T12:21:45.893Z,96730.89
2019-05-22T12:22:53.420Z,96728.59
2019-05-22T12:24:01.377Z,96731.26
2019-05-22T12:25:12.878Z,96729.22
2019-05-22T12:26:21.915Z,96725.39
2019-05-22T12:27:29.153Z,96730.36
2019-05-22T12:28:37.226Z,96733.19
2019-05-22T12:29:46.840Z,96723.44
2019-05-22T12:30:55.278Z,96726.75
2019-05-22T12:32:02.776Z,96733.14
2019-05-22T12:33:13.768Z,96737.41
2019-05-22T12:34:20.940Z,96730.53
2019-05-22T12:35:30.094Z,96730.53
2019-05-22T12:36:37.409Z,96731.02
2019-05-22T12:37:46.184Z,96739.32
2019-05-22T12:38:54.506Z,96734.23
2019-05-22T12:40:05.833Z,96738.27
2019-05-22T12:41:15.631Z,96740.66
2019-05-22T12:42:24.506Z,96740.95
2019-05-22T12:43:32.621Z,96734.78
2019-05-22T12:44:40.684Z,96735.52
2019-05-22T12:45:48.228Z,96732.22
2019-05-22T12:46:56.719Z,96732.70
2019-05-22T12:48:05.918Z,96736.61
2019-05-22T12:49:17.002Z,96736.48
2019-05-22T12:50:27.947Z,96734.56
2019-05-22T12:51:36.900Z,96733.13
2019-05-22T12:52:48.707Z,96735.97
2019-05-22T12:53:56.767Z,96729.21
2019-05-22T12:55:06.015Z,96728.79
2019-05-22T12:56:16.319Z,96728.27
2019-05-22T12:57:24.836Z,96724.76
2019-05-22T12:58:33.728Z,96727.20
2019-05-22T12:59:41.344Z,96722.59
2019-05-22T13:00:50.249Z,96725.50
2019-05-22T13:01:59.066Z,96722.55
2019-05-22T13:03:09.205Z,96721.36
2019-05-22T13:04:17.222Z,96719.05
2019-05-22T13:05:25.382Z,96720.95
2019-05-22T13:06:34.441Z,96718.98
2019-05-22T13:07:43.478Z,96723.02
2019-05-22T13:08:51.260Z,96728.27
2019-05-22T13:09:59.835Z,96716.17
2019-05-22T13:11:08.082Z,96718.27
2019-05-22T13:12:17.333Z,96718.24
2019-05-22T13:13:25.310Z,96716.08
2019-05-22T13:14:33.892Z,96723.75
2019-05-22T13:15:42.670Z,96720.16
2019-05-22T13:16:50.937Z,96718.47
2019-05-22T13:18:00.351Z,96716.31
2019-05-22T13:19:09.436Z,96719.37
2019-05-22T13:20:40.484Z,96723.41
2019-05-22T13:21:37.031Z,96720.40
2019-05-22T13:22:49.745Z,96721.63
2019-05-22T13:23:59.203Z,96722.81
2019-05-22T13:25:08.506Z,96725.97
2019-05-22T13:26:18.669Z,96727.82
2019-05-22T13:27:27.477Z,96725.85
2019-05-22T13:28:38.327Z,96715.72
2019-05-22T13:29:47.214Z,96724.06
2019-05-22T13:30:57.984Z,96723.41
2019-05-22T13:32:06.802Z,96722.58
2019-05-22T13:33:18.856Z,96729.27
2019-05-22T13:34:29.529Z,96729.90
2019-05-22T13:35:38.581Z,96724.46
2019-05-22T13:36:47.481Z,96720.48
2019-05-22T13:37:56.612Z,96715.08
2019-05-22T13:39:06.230Z,96722.73
2019-05-22T13:40:26.984Z,96718.12
2019-05-22T13:41:24.710Z,96725.30
2019-05-22T13:42:33.061Z,96726.74
2019-05-22T13:43:40.783Z,96725.58
2019-05-22T13:44:49.529Z,96721.30
2019-05-22T13:45:57.563Z,96717.38
2019-05-22T13:47:07.156Z,96717.07
2019-05-22T13:48:14.781Z,96724.75
2019-05-22T13:49:23.347Z,96717.72
2019-05-22T13:50:31.340Z,96718.41
2019-05-22T13:51:40.784Z,96718.12